Metropolis, IL

4:22 PM CDT on May 04, 2015 (GMT -0500)
Barkley Regional | | Change Station
CLOSE
Current Station
Airport
Location: Paducah,
Elevation: 410 ft
Nearby Weather Stations

Elev 410 ft 37.06 °N, 88.77 °W | Updated 29 minutes ago

Partly Cloudy
Partly Cloudy
84 °F
Feels Like 83 °F
N
8
Wind Variable Wind from South
Gusts 18 mph

Today
High -- | Low -- °F
--% Chance of Precip.
Yesterday
High -- | Low -- °F
Precip. -- in
5:57 AM 7:46 PM
Waxing Gibbous, 99% visible
Pressure 30.13 in
Visibility 10.0 miles
Clouds Few 6000 ft
Heat Index 83 °F
Dew Point 55 °F
Humidity 37%
Rainfall 0.00 in
Snow Depth Not available.
UV 6 out of 12
Pollen 10.30 out of 12
Air Quality Not available.
Flu Activity Local Activity
METAR KPAH 042053Z 19007G16KT 170V240 10SM FEW060 29/13 A3014 RMK AO2 SLP202 T02890128 58014

More Conditions Fewer Conditions

Pressure 30.13 in
Visibility 10.0 miles
Clouds Few 6000 ft
Heat Index 83 °F
Dew Point 55 °F
Humidity 37%
Rainfall 0.00 in
Snow Depth Not available.
UV 6 out of 12
Pollen 10.30 out of 12
Air Quality Not available.
Flu Activity Local Activity
METAR KPAH 042053Z 19007G16KT 170V240 10SM FEW060 29/13 A3014 RMK AO2 SLP202 T02890128 58014

More Conditions Fewer Conditions

Nepal has a long way to go to dig out and rebuild from a devastating earthquake. We have teamed up with several charities and organizations to make contributing to the relief effort as easy as possible.
How you can help: Portlight Strategies | Red Cross

10-Day Weather Forecast

Almanac

Astronomy

May. 04, 2015 Rise Set
Actual Time
Civil Twilight
Nautical Twilight
Astronomical Twilight
Moon
Length of Visible Light
Length of Day
Tomorrow will be .
, % of the Moon is Illuminated

Today's Extremes

State Highs State Lows

Community

WunderPhotos

Upload Photos

1,818,703 photos uploaded!

WunderBlogs® & News

Nearby

Air Quality

  Air Quality AQ Index Pollutant
Not available.

Snow Depth

Station Depth Elevation

Earthquake Activity

City Distance Mag. Time & Date
Minimum magnitude displayed is 2.5.

Coastal Water Temperatures

Place Temperature

Stations

Nearby Weather Stations

Station Location Temp. Windchill Dew Point Humidity Wind Precip. Elev Updated Type